sensor_id;sensor_type;location;lat;lon;timestamp;P1;durP1;ratioP1;P2;durP2;ratioP2
15342;SDS011;7771;48.478;8.936;2023-04-03T00:01:48;5.73;;;3.93;;
15342;SDS011;7771;48.478;8.936;2023-04-03T00:04:16;5.13;;;3.67;;
15342;SDS011;7771;48.478;8.936;2023-04-03T00:06:43;6.40;;;4.10;;
15342;SDS011;7771;48.478;8.936;2023-04-03T00:09:11;4.20;;;3.63;;
15342;SDS011;7771;48.478;8.936;2023-04-03T00:11:38;4.93;;;3.80;;
15342;SDS011;7771;48.478;8.936;2023-04-03T00:14:05;6.03;;;3.80;;
15342;SDS011;7771;48.478;8.936;2023-04-03T00:16:33;4.43;;;3.30;;
15342;SDS011;7771;48.478;8.936;2023-04-03T00:18:59;4.33;;;3.40;;
15342;SDS011;7771;48.478;8.936;2023-04-03T00:21:26;4.63;;;3.50;;
15342;SDS011;7771;48.478;8.936;2023-04-03T00:23:55;3.57;;;3.27;;
15342;SDS011;7771;48.478;8.936;2023-04-03T00:26:22;5.07;;;3.80;;
15342;SDS011;7771;48.478;8.936;2023-04-03T00:28:49;4.87;;;3.77;;
15342;SDS011;7771;48.478;8.936;2023-04-03T00:31:17;4.00;;;3.40;;
15342;SDS011;7771;48.478;8.936;2023-04-03T00:33:45;3.93;;;3.37;;
15342;SDS011;7771;48.478;8.936;2023-04-03T00:36:11;5.97;;;3.70;;
15342;SDS011;7771;48.478;8.936;2023-04-03T00:38:38;4.47;;;3.63;;
15342;SDS011;7771;48.478;8.936;2023-04-03T00:41:05;3.90;;;3.50;;
15342;SDS011;7771;48.478;8.936;2023-04-03T00:43:32;3.73;;;3.33;;
15342;SDS011;7771;48.478;8.936;2023-04-03T00:45:58;5.03;;;3.50;;
15342;SDS011;7771;48.478;8.936;2023-04-03T00:48:27;4.17;;;3.40;;
15342;SDS011;7771;48.478;8.936;2023-04-03T00:50:53;5.00;;;3.33;;
15342;SDS011;7771;48.478;8.936;2023-04-03T00:53:23;4.97;;;3.27;;
15342;SDS011;7771;48.478;8.936;2023-04-03T00:55:48;5.07;;;3.60;;
15342;SDS011;7771;48.478;8.936;2023-04-03T00:58:15;3.90;;;3.20;;
15342;SDS011;7771;48.478;8.936;2023-04-03T01:00:43;5.83;;;4.13;;
15342;SDS011;7771;48.478;8.936;2023-04-03T01:03:10;6.73;;;3.50;;
15342;SDS011;7771;48.478;8.936;2023-04-03T01:05:38;3.77;;;3.40;;
15342;SDS011;7771;48.478;8.936;2023-04-03T01:08:05;4.77;;;3.60;;
15342;SDS011;7771;48.478;8.936;2023-04-03T01:10:31;3.43;;;3.10;;
15342;SDS011;7771;48.478;8.936;2023-04-03T01:12:58;5.13;;;3.70;;
15342;SDS011;7771;48.478;8.936;2023-04-03T01:15:25;4.87;;;3.00;;
15342;SDS011;7771;48.478;8.936;2023-04-03T01:17:53;5.57;;;3.20;;
15342;SDS011;7771;48.478;8.936;2023-04-03T01:21:36;4.40;;;3.53;;
15342;SDS011;7771;48.478;8.936;2023-04-03T01:23:15;4.33;;;3.13;;
15342;SDS011;7771;48.478;8.936;2023-04-03T01:25:41;3.67;;;3.20;;
15342;SDS011;7771;48.478;8.936;2023-04-03T01:28:08;4.03;;;3.63;;
15342;SDS011;7771;48.478;8.936;2023-04-03T01:30:35;6.00;;;3.40;;
15342;SDS011;7771;48.478;8.936;2023-04-03T01:33:02;4.33;;;3.00;;
15342;SDS011;7771;48.478;8.936;2023-04-03T01:35:29;4.17;;;3.77;;
15342;SDS011;7771;48.478;8.936;2023-04-03T01:37:58;3.80;;;3.40;;
15342;SDS011;7771;48.478;8.936;2023-04-03T01:40:24;4.90;;;3.93;;
15342;SDS011;7771;48.478;8.936;2023-04-03T01:42:50;4.33;;;3.43;;
15342;SDS011;7771;48.478;8.936;2023-04-03T01:45:17;4.07;;;3.20;;
15342;SDS011;7771;48.478;8.936;2023-04-03T01:47:45;4.73;;;3.47;;
15342;SDS011;7771;48.478;8.936;2023-04-03T01:50:13;5.10;;;3.30;;
15342;SDS011;7771;48.478;8.936;2023-04-03T01:52:40;6.83;;;3.60;;
15342;SDS011;7771;48.478;8.936;2023-04-03T01:55:06;3.70;;;3.27;;
15342;SDS011;7771;48.478;8.936;2023-04-03T01:57:33;3.20;;;2.90;;
15342;SDS011;7771;48.478;8.936;2023-04-03T02:00:00;5.20;;;3.80;;
15342;SDS011;7771;48.478;8.936;2023-04-03T02:02:28;4.80;;;3.50;;
15342;SDS011;7771;48.478;8.936;2023-04-03T02:04:55;4.50;;;3.30;;
15342;SDS011;7771;48.478;8.936;2023-04-03T02:07:22;3.90;;;3.50;;
15342;SDS011;7771;48.478;8.936;2023-04-03T02:09:49;4.30;;;3.60;;
15342;SDS011;7771;48.478;8.936;2023-04-03T02:12:16;4.63;;;3.40;;
15342;SDS011;7771;48.478;8.936;2023-04-03T02:14:43;4.70;;;3.40;;
15342;SDS011;7771;48.478;8.936;2023-04-03T02:17:09;5.80;;;3.57;;
15342;SDS011;7771;48.478;8.936;2023-04-03T02:19:37;4.20;;;3.30;;
15342;SDS011;7771;48.478;8.936;2023-04-03T02:22:05;6.30;;;3.50;;
15342;SDS011;7771;48.478;8.936;2023-04-03T02:24:32;3.73;;;3.43;;
15342;SDS011;7771;48.478;8.936;2023-04-03T02:26:59;5.13;;;3.40;;
15342;SDS011;7771;48.478;8.936;2023-04-03T02:29:27;3.43;;;3.00;;
15342;SDS011;7771;48.478;8.936;2023-04-03T02:31:54;4.10;;;3.40;;
15342;SDS011;7771;48.478;8.936;2023-04-03T02:34:21;4.03;;;3.23;;
15342;SDS011;7771;48.478;8.936;2023-04-03T02:36:48;3.87;;;3.30;;
15342;SDS011;7771;48.478;8.936;2023-04-03T02:39:15;3.60;;;3.10;;
15342;SDS011;7771;48.478;8.936;2023-04-03T02:41:42;4.07;;;3.67;;
15342;SDS011;7771;48.478;8.936;2023-04-03T02:44:11;3.90;;;3.53;;
15342;SDS011;7771;48.478;8.936;2023-04-03T02:46:36;4.30;;;3.50;;
15342;SDS011;7771;48.478;8.936;2023-04-03T02:49:03;5.33;;;3.53;;
15342;SDS011;7771;48.478;8.936;2023-04-03T02:51:29;5.63;;;3.17;;
15342;SDS011;7771;48.478;8.936;2023-04-03T02:53:56;4.20;;;3.53;;
15342;SDS011;7771;48.478;8.936;2023-04-03T02:56:23;5.30;;;3.80;;
15342;SDS011;7771;48.478;8.936;2023-04-03T02:58:50;4.97;;;3.43;;
15342;SDS011;7771;48.478;8.936;2023-04-03T03:01:17;3.70;;;3.07;;
15342;SDS011;7771;48.478;8.936;2023-04-03T03:03:43;3.93;;;3.23;;
15342;SDS011;7771;48.478;8.936;2023-04-03T03:06:12;4.00;;;3.60;;
15342;SDS011;7771;48.478;8.936;2023-04-03T03:08:38;5.97;;;3.90;;
15342;SDS011;7771;48.478;8.936;2023-04-03T03:11:05;3.80;;;3.20;;
15342;SDS011;7771;48.478;8.936;2023-04-03T03:13:31;4.17;;;3.57;;
15342;SDS011;7771;48.478;8.936;2023-04-03T03:15:59;4.93;;;3.40;;
15342;SDS011;7771;48.478;8.936;2023-04-03T03:18:26;4.77;;;3.80;;
15342;SDS011;7771;48.478;8.936;2023-04-03T03:20:53;4.63;;;3.63;;
15342;SDS011;7771;48.478;8.936;2023-04-03T03:23:23;4.20;;;3.30;;
15342;SDS011;7771;48.478;8.936;2023-04-03T03:25:49;3.67;;;3.23;;
15342;SDS011;7771;48.478;8.936;2023-04-03T03:28:15;3.77;;;3.10;;
15342;SDS011;7771;48.478;8.936;2023-04-03T03:30:42;5.00;;;3.47;;
15342;SDS011;7771;48.478;8.936;2023-04-03T03:33:09;5.50;;;3.63;;
15342;SDS011;7771;48.478;8.936;2023-04-03T03:35:36;4.53;;;3.43;;
15342;SDS011;7771;48.478;8.936;2023-04-03T03:38:02;5.20;;;3.67;;
15342;SDS011;7771;48.478;8.936;2023-04-03T03:40:29;4.40;;;3.83;;
15342;SDS011;7771;48.478;8.936;2023-04-03T03:42:56;6.60;;;3.67;;
15342;SDS011;7771;48.478;8.936;2023-04-03T03:45:24;3.87;;;3.23;;
15342;SDS011;7771;48.478;8.936;2023-04-03T03:47:51;8.53;;;3.80;;
15342;SDS011;7771;48.478;8.936;2023-04-03T03:50:18;4.73;;;3.93;;
15342;SDS011;7771;48.478;8.936;2023-04-03T03:52:45;4.13;;;3.37;;
15342;SDS011;7771;48.478;8.936;2023-04-03T03:55:12;4.83;;;3.53;;
15342;SDS011;7771;48.478;8.936;2023-04-03T03:57:40;4.07;;;3.67;;
15342;SDS011;7771;48.478;8.936;2023-04-03T04:00:07;6.17;;;3.67;;
15342;SDS011;7771;48.478;8.936;2023-04-03T04:02:35;3.60;;;3.30;;
15342;SDS011;7771;48.478;8.936;2023-04-03T04:05:03;4.33;;;3.70;;
15342;SDS011;7771;48.478;8.936;2023-04-03T04:07:30;4.10;;;3.37;;
15342;SDS011;7771;48.478;8.936;2023-04-03T04:09:57;4.13;;;3.43;;
15342;SDS011;7771;48.478;8.936;2023-04-03T04:12:25;5.30;;;3.90;;
15342;SDS011;7771;48.478;8.936;2023-04-03T04:14:52;4.13;;;3.47;;
15342;SDS011;7771;48.478;8.936;2023-04-03T04:17:19;4.17;;;3.73;;
15342;SDS011;7771;48.478;8.936;2023-04-03T04:19:46;4.07;;;3.33;;
15342;SDS011;7771;48.478;8.936;2023-04-03T04:22:14;4.00;;;3.30;;
15342;SDS011;7771;48.478;8.936;2023-04-03T04:24:40;3.83;;;3.43;;
15342;SDS011;7771;48.478;8.936;2023-04-03T04:27:08;4.93;;;3.40;;
15342;SDS011;7771;48.478;8.936;2023-04-03T04:29:34;4.43;;;3.50;;
15342;SDS011;7771;48.478;8.936;2023-04-03T04:32:02;4.63;;;3.23;;
15342;SDS011;7771;48.478;8.936;2023-04-03T04:34:28;4.93;;;4.10;;
15342;SDS011;7771;48.478;8.936;2023-04-03T04:36:56;4.03;;;3.63;;
15342;SDS011;7771;48.478;8.936;2023-04-03T04:39:23;5.57;;;3.73;;
15342;SDS011;7771;48.478;8.936;2023-04-03T04:41:50;5.77;;;3.83;;
15342;SDS011;7771;48.478;8.936;2023-04-03T04:44:18;7.13;;;3.40;;
15342;SDS011;7771;48.478;8.936;2023-04-03T04:46:46;5.13;;;3.53;;
15342;SDS011;7771;48.478;8.936;2023-04-03T04:49:12;5.27;;;3.60;;
15342;SDS011;7771;48.478;8.936;2023-04-03T04:51:39;4.47;;;3.80;;
15342;SDS011;7771;48.478;8.936;2023-04-03T04:54:06;6.07;;;4.03;;
15342;SDS011;7771;48.478;8.936;2023-04-03T04:56:33;5.73;;;3.70;;
15342;SDS011;7771;48.478;8.936;2023-04-03T04:59:01;4.97;;;3.83;;
15342;SDS011;7771;48.478;8.936;2023-04-03T05:01:29;5.33;;;3.23;;
15342;SDS011;7771;48.478;8.936;2023-04-03T05:03:56;3.53;;;3.20;;
15342;SDS011;7771;48.478;8.936;2023-04-03T05:06:22;4.93;;;3.43;;
15342;SDS011;7771;48.478;8.936;2023-04-03T05:08:49;7.30;;;3.67;;
15342;SDS011;7771;48.478;8.936;2023-04-03T05:11:16;4.07;;;3.00;;
15342;SDS011;7771;48.478;8.936;2023-04-03T05:13:43;4.57;;;3.40;;
15342;SDS011;7771;48.478;8.936;2023-04-03T05:16:09;5.07;;;3.67;;
15342;SDS011;7771;48.478;8.936;2023-04-03T05:18:36;3.97;;;3.57;;
15342;SDS011;7771;48.478;8.936;2023-04-03T05:21:02;5.33;;;3.53;;
15342;SDS011;7771;48.478;8.936;2023-04-03T05:23:31;3.90;;;3.40;;
15342;SDS011;7771;48.478;8.936;2023-04-03T05:25:58;5.17;;;3.70;;
15342;SDS011;7771;48.478;8.936;2023-04-03T05:28:26;3.60;;;3.30;;
15342;SDS011;7771;48.478;8.936;2023-04-03T05:30:53;5.63;;;3.83;;
15342;SDS011;7771;48.478;8.936;2023-04-03T05:33:20;5.27;;;3.50;;
15342;SDS011;7771;48.478;8.936;2023-04-03T05:35:48;5.23;;;3.57;;
15342;SDS011;7771;48.478;8.936;2023-04-03T05:38:15;4.97;;;3.57;;
15342;SDS011;7771;48.478;8.936;2023-04-03T05:40:43;5.17;;;3.83;;
15342;SDS011;7771;48.478;8.936;2023-04-03T05:43:09;4.30;;;3.53;;
15342;SDS011;7771;48.478;8.936;2023-04-03T05:45:37;3.90;;;3.23;;
15342;SDS011;7771;48.478;8.936;2023-04-03T05:48:05;4.20;;;3.23;;
15342;SDS011;7771;48.478;8.936;2023-04-03T05:50:31;4.77;;;3.30;;
15342;SDS011;7771;48.478;8.936;2023-04-03T05:52:58;6.37;;;3.50;;
15342;SDS011;7771;48.478;8.936;2023-04-03T05:55:25;5.80;;;3.63;;
15342;SDS011;7771;48.478;8.936;2023-04-03T05:57:53;4.77;;;3.40;;
15342;SDS011;7771;48.478;8.936;2023-04-03T06:00:19;4.40;;;3.93;;
15342;SDS011;7771;48.478;8.936;2023-04-03T06:02:46;5.03;;;3.63;;
15342;SDS011;7771;48.478;8.936;2023-04-03T06:05:14;4.87;;;4.10;;
15342;SDS011;7771;48.478;8.936;2023-04-03T06:07:42;4.40;;;3.60;;
15342;SDS011;7771;48.478;8.936;2023-04-03T06:10:11;4.63;;;3.20;;
15342;SDS011;7771;48.478;8.936;2023-04-03T06:12:37;3.20;;;2.73;;
15342;SDS011;7771;48.478;8.936;2023-04-03T06:15:05;3.83;;;2.90;;
15342;SDS011;7771;48.478;8.936;2023-04-03T06:17:32;3.43;;;3.07;;
15342;SDS011;7771;48.478;8.936;2023-04-03T06:20:00;3.63;;;3.33;;
15342;SDS011;7771;48.478;8.936;2023-04-03T06:22:29;3.87;;;2.87;;
15342;SDS011;7771;48.478;8.936;2023-04-03T06:24:56;5.07;;;2.80;;
15342;SDS011;7771;48.478;8.936;2023-04-03T06:27:22;3.40;;;3.10;;
15342;SDS011;7771;48.478;8.936;2023-04-03T06:29:49;3.47;;;3.17;;
15342;SDS011;7771;48.478;8.936;2023-04-03T06:32:16;7.30;;;3.20;;
15342;SDS011;7771;48.478;8.936;2023-04-03T06:34:42;3.13;;;2.60;;
15342;SDS011;7771;48.478;8.936;2023-04-03T06:37:21;4.23;;;3.00;;
15342;SDS011;7771;48.478;8.936;2023-04-03T06:39:47;3.90;;;3.07;;
15342;SDS011;7771;48.478;8.936;2023-04-03T06:42:14;4.50;;;2.70;;
15342;SDS011;7771;48.478;8.936;2023-04-03T06:44:42;4.27;;;2.67;;
15342;SDS011;7771;48.478;8.936;2023-04-03T06:47:10;3.17;;;2.47;;
15342;SDS011;7771;48.478;8.936;2023-04-03T06:49:35;3.60;;;2.70;;
15342;SDS011;7771;48.478;8.936;2023-04-03T06:52:02;4.20;;;3.40;;
15342;SDS011;7771;48.478;8.936;2023-04-03T06:59:57;3.37;;;2.70;;
15342;SDS011;7771;48.478;8.936;2023-04-03T07:02:24;4.63;;;2.93;;
15342;SDS011;7771;48.478;8.936;2023-04-03T07:04:50;3.80;;;3.03;;
15342;SDS011;7771;48.478;8.936;2023-04-03T07:07:17;7.20;;;4.43;;
15342;SDS011;7771;48.478;8.936;2023-04-03T07:09:44;4.50;;;3.93;;
15342;SDS011;7771;48.478;8.936;2023-04-03T07:12:10;5.23;;;3.67;;
15342;SDS011;7771;48.478;8.936;2023-04-03T07:14:39;5.33;;;3.30;;
15342;SDS011;7771;48.478;8.936;2023-04-03T07:17:06;3.27;;;2.60;;
15342;SDS011;7771;48.478;8.936;2023-04-03T07:19:33;6.50;;;4.63;;
15342;SDS011;7771;48.478;8.936;2023-04-03T07:22:01;4.60;;;2.90;;
15342;SDS011;7771;48.478;8.936;2023-04-03T07:24:28;3.60;;;2.70;;
15342;SDS011;7771;48.478;8.936;2023-04-03T07:26:56;3.30;;;2.80;;
15342;SDS011;7771;48.478;8.936;2023-04-03T07:29:22;3.63;;;2.83;;
15342;SDS011;7771;48.478;8.936;2023-04-03T07:31:50;3.13;;;2.30;;
15342;SDS011;7771;48.478;8.936;2023-04-03T07:34:17;3.07;;;2.73;;
15342;SDS011;7771;48.478;8.936;2023-04-03T07:36:44;4.93;;;2.50;;
15342;SDS011;7771;48.478;8.936;2023-04-03T07:39:12;2.83;;;2.33;;
15342;SDS011;7771;48.478;8.936;2023-04-03T07:41:39;2.57;;;2.27;;
15342;SDS011;7771;48.478;8.936;2023-04-03T07:44:07;3.07;;;2.20;;
15342;SDS011;7771;48.478;8.936;2023-04-03T07:46:33;2.90;;;2.20;;
15342;SDS011;7771;48.478;8.936;2023-04-03T07:49:00;4.13;;;2.83;;
15342;SDS011;7771;48.478;8.936;2023-04-03T07:51:27;2.30;;;2.03;;
15342;SDS011;7771;48.478;8.936;2023-04-03T07:53:53;2.80;;;2.13;;
15342;SDS011;7771;48.478;8.936;2023-04-03T07:56:21;2.00;;;1.77;;
15342;SDS011;7771;48.478;8.936;2023-04-03T07:58:49;2.63;;;2.30;;
15342;SDS011;7771;48.478;8.936;2023-04-03T08:01:16;2.67;;;2.20;;
15342;SDS011;7771;48.478;8.936;2023-04-03T08:03:43;3.97;;;2.30;;
15342;SDS011;7771;48.478;8.936;2023-04-03T08:06:11;2.23;;;1.87;;
15342;SDS011;7771;48.478;8.936;2023-04-03T08:08:38;2.20;;;1.90;;
15342;SDS011;7771;48.478;8.936;2023-04-03T08:11:06;3.60;;;2.30;;
15342;SDS011;7771;48.478;8.936;2023-04-03T08:13:32;4.53;;;2.40;;
15342;SDS011;7771;48.478;8.936;2023-04-03T08:16:06;2.60;;;2.37;;
15342;SDS011;7771;48.478;8.936;2023-04-03T08:18:27;2.93;;;2.60;;
15342;SDS011;7771;48.478;8.936;2023-04-03T08:20:54;6.50;;;4.13;;
15342;SDS011;7771;48.478;8.936;2023-04-03T08:23:21;3.10;;;2.40;;
15342;SDS011;7771;48.478;8.936;2023-04-03T08:25:47;3.30;;;2.73;;
15342;SDS011;7771;48.478;8.936;2023-04-03T08:28:14;2.97;;;2.67;;
15342;SDS011;7771;48.478;8.936;2023-04-03T08:30:41;5.53;;;2.40;;
15342;SDS011;7771;48.478;8.936;2023-04-03T08:33:08;4.40;;;3.20;;
15342;SDS011;7771;48.478;8.936;2023-04-03T08:35:38;4.13;;;3.03;;
15342;SDS011;7771;48.478;8.936;2023-04-03T08:38:05;3.70;;;3.00;;
15342;SDS011;7771;48.478;8.936;2023-04-03T08:40:32;2.80;;;2.60;;
15342;SDS011;7771;48.478;8.936;2023-04-03T08:43:04;2.70;;;2.47;;
15342;SDS011;7771;48.478;8.936;2023-04-03T08:45:37;3.30;;;3.00;;
15342;SDS011;7771;48.478;8.936;2023-04-03T08:48:04;3.23;;;2.80;;
15342;SDS011;7771;48.478;8.936;2023-04-03T08:50:31;3.00;;;2.70;;
15342;SDS011;7771;48.478;8.936;2023-04-03T08:52:59;4.80;;;3.27;;
15342;SDS011;7771;48.478;8.936;2023-04-03T08:55:26;3.90;;;2.80;;
15342;SDS011;7771;48.478;8.936;2023-04-03T08:58:05;4.17;;;2.40;;
15342;SDS011;7771;48.478;8.936;2023-04-03T09:00:34;2.67;;;2.20;;
15342;SDS011;7771;48.478;8.936;2023-04-03T09:03:00;6.73;;;2.67;;
15342;SDS011;7771;48.478;8.936;2023-04-03T09:05:35;4.43;;;3.10;;
15342;SDS011;7771;48.478;8.936;2023-04-03T09:08:00;3.37;;;2.30;;
15342;SDS011;7771;48.478;8.936;2023-04-03T09:10:27;4.83;;;3.00;;
15342;SDS011;7771;48.478;8.936;2023-04-03T09:12:59;4.57;;;3.87;;
15342;SDS011;7771;48.478;8.936;2023-04-03T09:15:24;5.10;;;3.77;;
15342;SDS011;7771;48.478;8.936;2023-04-03T09:17:57;5.33;;;3.90;;
15342;SDS011;7771;48.478;8.936;2023-04-03T09:20:26;2.67;;;2.33;;
15342;SDS011;7771;48.478;8.936;2023-04-03T09:22:51;2.37;;;2.17;;
15342;SDS011;7771;48.478;8.936;2023-04-03T09:25:19;3.60;;;2.93;;
15342;SDS011;7771;48.478;8.936;2023-04-03T09:27:46;4.10;;;3.40;;
15342;SDS011;7771;48.478;8.936;2023-04-03T09:30:14;3.47;;;2.50;;
15342;SDS011;7771;48.478;8.936;2023-04-03T09:32:41;3.77;;;2.53;;
15342;SDS011;7771;48.478;8.936;2023-04-03T09:35:18;3.20;;;2.90;;
15342;SDS011;7771;48.478;8.936;2023-04-03T09:37:44;3.23;;;2.93;;
15342;SDS011;7771;48.478;8.936;2023-04-03T09:40:28;7.67;;;2.53;;
15342;SDS011;7771;48.478;8.936;2023-04-03T09:42:56;5.07;;;2.20;;
15342;SDS011;7771;48.478;8.936;2023-04-03T09:45:26;4.13;;;2.00;;
15342;SDS011;7771;48.478;8.936;2023-04-03T09:48:12;2.33;;;1.90;;
15342;SDS011;7771;48.478;8.936;2023-04-03T09:50:35;2.80;;;2.60;;
15342;SDS011;7771;48.478;8.936;2023-04-03T09:53:05;3.77;;;2.50;;
15342;SDS011;7771;48.478;8.936;2023-04-03T09:55:30;4.07;;;3.00;;
15342;SDS011;7771;48.478;8.936;2023-04-03T09:57:58;3.63;;;2.80;;
15342;SDS011;7771;48.478;8.936;2023-04-03T10:00:26;4.57;;;2.40;;
15342;SDS011;7771;48.478;8.936;2023-04-03T10:02:54;2.97;;;2.20;;
15342;SDS011;7771;48.478;8.936;2023-04-03T10:05:26;2.93;;;2.30;;
15342;SDS011;7771;48.478;8.936;2023-04-03T10:08:10;3.20;;;2.27;;
15342;SDS011;7771;48.478;8.936;2023-04-03T10:10:37;2.77;;;1.97;;
15342;SDS011;7771;48.478;8.936;2023-04-03T10:13:04;2.17;;;1.97;;
15342;SDS011;7771;48.478;8.936;2023-04-03T10:15:36;6.40;;;2.30;;
15342;SDS011;7771;48.478;8.936;2023-04-03T10:18:05;1.83;;;1.60;;
15342;SDS011;7771;48.478;8.936;2023-04-03T10:20:33;2.50;;;2.07;;
15342;SDS011;7771;48.478;8.936;2023-04-03T10:23:14;3.67;;;2.33;;
15342;SDS011;7771;48.478;8.936;2023-04-03T10:25:40;3.53;;;2.40;;
15342;SDS011;7771;48.478;8.936;2023-04-03T10:28:09;2.87;;;2.50;;
15342;SDS011;7771;48.478;8.936;2023-04-03T10:30:42;3.07;;;2.47;;
15342;SDS011;7771;48.478;8.936;2023-04-03T10:33:16;3.30;;;2.00;;
15342;SDS011;7771;48.478;8.936;2023-04-03T10:38:20;3.13;;;2.63;;
15342;SDS011;7771;48.478;8.936;2023-04-03T10:40:59;4.87;;;3.37;;
15342;SDS011;7771;48.478;8.936;2023-04-03T10:43:44;4.37;;;3.43;;
15342;SDS011;7771;48.478;8.936;2023-04-03T10:46:11;4.93;;;2.83;;
15342;SDS011;7771;48.478;8.936;2023-04-03T10:51:29;2.83;;;2.50;;
15342;SDS011;7771;48.478;8.936;2023-04-03T10:54:00;3.33;;;2.60;;
15342;SDS011;7771;48.478;8.936;2023-04-03T10:56:31;2.30;;;2.10;;
15342;SDS011;7771;48.478;8.936;2023-04-03T10:59:05;3.03;;;2.50;;
15342;SDS011;7771;48.478;8.936;2023-04-03T11:01:31;4.97;;;2.90;;
15342;SDS011;7771;48.478;8.936;2023-04-03T11:03:57;4.20;;;2.60;;
15342;SDS011;7771;48.478;8.936;2023-04-03T11:06:24;3.07;;;2.43;;
15342;SDS011;7771;48.478;8.936;2023-04-03T11:08:56;3.43;;;2.77;;
15342;SDS011;7771;48.478;8.936;2023-04-03T11:11:22;3.07;;;2.20;;
15342;SDS011;7771;48.478;8.936;2023-04-03T11:13:55;3.03;;;2.23;;
15342;SDS011;7771;48.478;8.936;2023-04-03T11:16:24;3.13;;;2.37;;
15342;SDS011;7771;48.478;8.936;2023-04-03T11:18:54;2.07;;;1.90;;
15342;SDS011;7771;48.478;8.936;2023-04-03T11:23:52;8.10;;;4.73;;
15342;SDS011;7771;48.478;8.936;2023-04-03T11:26:21;3.73;;;2.53;;
15342;SDS011;7771;48.478;8.936;2023-04-03T11:28:46;5.90;;;4.50;;
15342;SDS011;7771;48.478;8.936;2023-04-03T11:31:15;2.27;;;2.07;;
15342;SDS011;7771;48.478;8.936;2023-04-03T11:33:51;3.73;;;2.23;;
15342;SDS011;7771;48.478;8.936;2023-04-03T11:36:26;4.73;;;2.40;;
15342;SDS011;7771;48.478;8.936;2023-04-03T11:38:55;4.80;;;3.17;;
15342;SDS011;7771;48.478;8.936;2023-04-03T11:41:25;4.90;;;3.10;;
15342;SDS011;7771;48.478;8.936;2023-04-03T11:43:56;3.07;;;2.50;;
15342;SDS011;7771;48.478;8.936;2023-04-03T11:46:23;3.10;;;2.50;;
15342;SDS011;7771;48.478;8.936;2023-04-03T11:48:50;3.37;;;2.87;;
15342;SDS011;7771;48.478;8.936;2023-04-03T11:54:44;5.50;;;3.00;;
15342;SDS011;7771;48.478;8.936;2023-04-03T11:56:52;3.60;;;2.60;;
15342;SDS011;7771;48.478;8.936;2023-04-03T11:59:22;6.77;;;3.53;;
15342;SDS011;7771;48.478;8.936;2023-04-03T12:01:51;8.87;;;3.53;;
15342;SDS011;7771;48.478;8.936;2023-04-03T12:04:18;3.40;;;2.03;;
15342;SDS011;7771;48.478;8.936;2023-04-03T12:06:54;3.33;;;2.57;;
15342;SDS011;7771;48.478;8.936;2023-04-03T12:09:27;3.37;;;2.33;;
15342;SDS011;7771;48.478;8.936;2023-04-03T12:11:53;4.27;;;2.20;;
15342;SDS011;7771;48.478;8.936;2023-04-03T12:14:22;2.00;;;1.80;;
15342;SDS011;7771;48.478;8.936;2023-04-03T12:16:47;3.57;;;2.20;;
15342;SDS011;7771;48.478;8.936;2023-04-03T12:19:31;4.97;;;2.07;;
15342;SDS011;7771;48.478;8.936;2023-04-03T12:22:05;2.63;;;1.77;;
15342;SDS011;7771;48.478;8.936;2023-04-03T12:24:33;2.90;;;2.27;;
15342;SDS011;7771;48.478;8.936;2023-04-03T12:27:04;3.50;;;2.17;;
15342;SDS011;7771;48.478;8.936;2023-04-03T12:29:47;2.60;;;2.30;;
15342;SDS011;7771;48.478;8.936;2023-04-03T12:40:24;3.77;;;2.13;;
15342;SDS011;7771;48.478;8.936;2023-04-03T12:43:01;5.40;;;2.53;;
15342;SDS011;7771;48.478;8.936;2023-04-03T12:45:43;5.93;;;2.80;;
15342;SDS011;7771;48.478;8.936;2023-04-03T12:48:16;3.90;;;2.20;;
15342;SDS011;7771;48.478;8.936;2023-04-03T12:50:43;3.30;;;2.00;;
15342;SDS011;7771;48.478;8.936;2023-04-03T12:53:12;2.37;;;2.10;;
15342;SDS011;7771;48.478;8.936;2023-04-03T12:55:40;6.93;;;3.50;;
15342;SDS011;7771;48.478;8.936;2023-04-03T12:58:13;6.13;;;3.83;;
15342;SDS011;7771;48.478;8.936;2023-04-03T13:00:39;5.30;;;3.80;;
15342;SDS011;7771;48.478;8.936;2023-04-03T13:03:06;4.33;;;3.17;;
15342;SDS011;7771;48.478;8.936;2023-04-03T13:05:32;3.23;;;2.80;;
15342;SDS011;7771;48.478;8.936;2023-04-03T13:08:03;4.17;;;2.60;;
15342;SDS011;7771;48.478;8.936;2023-04-03T13:10:27;5.13;;;2.37;;
15342;SDS011;7771;48.478;8.936;2023-04-03T13:12:57;5.00;;;2.30;;
15342;SDS011;7771;48.478;8.936;2023-04-03T13:15:25;4.13;;;2.73;;
15342;SDS011;7771;48.478;8.936;2023-04-03T13:17:54;6.63;;;3.70;;
15342;SDS011;7771;48.478;8.936;2023-04-03T13:20:24;4.90;;;2.90;;
15342;SDS011;7771;48.478;8.936;2023-04-03T13:22:52;6.47;;;2.37;;
15342;SDS011;7771;48.478;8.936;2023-04-03T13:25:18;3.30;;;2.23;;
15342;SDS011;7771;48.478;8.936;2023-04-03T13:27:44;3.53;;;2.03;;
15342;SDS011;7771;48.478;8.936;2023-04-03T13:30:24;2.70;;;2.20;;
15342;SDS011;7771;48.478;8.936;2023-04-03T13:32:52;2.23;;;1.70;;
15342;SDS011;7771;48.478;8.936;2023-04-03T13:35:31;2.80;;;2.07;;
15342;SDS011;7771;48.478;8.936;2023-04-03T13:38:06;4.07;;;2.37;;
15342;SDS011;7771;48.478;8.936;2023-04-03T13:40:32;4.33;;;2.00;;
15342;SDS011;7771;48.478;8.936;2023-04-03T13:43:01;2.10;;;1.90;;
15342;SDS011;7771;48.478;8.936;2023-04-03T13:45:28;2.37;;;1.83;;
15342;SDS011;7771;48.478;8.936;2023-04-03T13:48:16;4.20;;;2.10;;
15342;SDS011;7771;48.478;8.936;2023-04-03T13:51:05;5.00;;;2.20;;
15342;SDS011;7771;48.478;8.936;2023-04-03T13:53:32;4.03;;;1.90;;
15342;SDS011;7771;48.478;8.936;2023-04-03T13:56:07;3.03;;;1.80;;
15342;SDS011;7771;48.478;8.936;2023-04-03T13:58:34;3.67;;;2.30;;
15342;SDS011;7771;48.478;8.936;2023-04-03T14:01:09;5.20;;;2.20;;
15342;SDS011;7771;48.478;8.936;2023-04-03T14:03:55;2.70;;;1.93;;
15342;SDS011;7771;48.478;8.936;2023-04-03T14:06:19;4.27;;;2.13;;
15342;SDS011;7771;48.478;8.936;2023-04-03T14:08:46;3.13;;;2.00;;
15342;SDS011;7771;48.478;8.936;2023-04-03T14:11:18;3.50;;;2.30;;
15342;SDS011;7771;48.478;8.936;2023-04-03T14:13:46;3.53;;;1.63;;
15342;SDS011;7771;48.478;8.936;2023-04-03T14:16:15;2.90;;;2.07;;
15342;SDS011;7771;48.478;8.936;2023-04-03T14:18:42;2.90;;;2.10;;
15342;SDS011;7771;48.478;8.936;2023-04-03T14:21:10;3.53;;;2.30;;
15342;SDS011;7771;48.478;8.936;2023-04-03T14:23:35;2.03;;;1.80;;
15342;SDS011;7771;48.478;8.936;2023-04-03T14:26:02;3.63;;;2.27;;
15342;SDS011;7771;48.478;8.936;2023-04-03T14:28:29;2.50;;;2.20;;
15342;SDS011;7771;48.478;8.936;2023-04-03T14:30:56;2.93;;;2.30;;
15342;SDS011;7771;48.478;8.936;2023-04-03T14:33:23;4.30;;;2.20;;
15342;SDS011;7771;48.478;8.936;2023-04-03T14:35:50;3.73;;;2.43;;
15342;SDS011;7771;48.478;8.936;2023-04-03T14:38:24;6.50;;;3.27;;
15342;SDS011;7771;48.478;8.936;2023-04-03T14:40:50;4.50;;;2.87;;
15342;SDS011;7771;48.478;8.936;2023-04-03T14:43:17;5.03;;;2.57;;
15342;SDS011;7771;48.478;8.936;2023-04-03T14:45:44;4.27;;;2.30;;
15342;SDS011;7771;48.478;8.936;2023-04-03T14:48:15;4.17;;;3.17;;
15342;SDS011;7771;48.478;8.936;2023-04-03T14:50:39;3.90;;;2.57;;
15342;SDS011;7771;48.478;8.936;2023-04-03T14:53:05;4.03;;;2.30;;
15342;SDS011;7771;48.478;8.936;2023-04-03T14:55:32;3.40;;;2.60;;
15342;SDS011;7771;48.478;8.936;2023-04-03T14:57:59;3.57;;;2.30;;
15342;SDS011;7771;48.478;8.936;2023-04-03T15:00:25;4.60;;;2.13;;
15342;SDS011;7771;48.478;8.936;2023-04-03T15:02:52;3.80;;;2.23;;
15342;SDS011;7771;48.478;8.936;2023-04-03T15:05:19;2.87;;;2.23;;
15342;SDS011;7771;48.478;8.936;2023-04-03T15:07:49;5.17;;;2.67;;
15342;SDS011;7771;48.478;8.936;2023-04-03T15:10:17;2.77;;;2.27;;
15342;SDS011;7771;48.478;8.936;2023-04-03T15:12:42;2.53;;;2.20;;
15342;SDS011;7771;48.478;8.936;2023-04-03T15:15:09;2.60;;;2.10;;
15342;SDS011;7771;48.478;8.936;2023-04-03T15:17:36;3.30;;;2.23;;
15342;SDS011;7771;48.478;8.936;2023-04-03T15:20:03;2.43;;;2.10;;
15342;SDS011;7771;48.478;8.936;2023-04-03T15:22:30;2.93;;;2.20;;
15342;SDS011;7771;48.478;8.936;2023-04-03T15:24:57;3.30;;;1.97;;
15342;SDS011;7771;48.478;8.936;2023-04-03T15:27:24;2.93;;;1.90;;
15342;SDS011;7771;48.478;8.936;2023-04-03T15:29:51;3.20;;;2.50;;
15342;SDS011;7771;48.478;8.936;2023-04-03T15:32:17;5.23;;;3.00;;